DW3253 Tampa FL US current weather conditions

sailwx.info

Wind from 298 at 2 knots gusting 6

Air temperature 11.7° C
Dewpoint 9.4° C

Last reported at 2019-Nov-17 17:00 UTC.
Time now 2019-Nov-17 18:04 UTC

Location: N 27°57' W 082°28'.
View on Google Maps.

See reports from other nearby stations

  
Tides and Currents Weather Stations Pressure Air Temp Water Temp Dewpoint Dewpoint Depression Visibility Wind Speed Wind Dir Waves Ship Positions
date/time (UTC)wind fromknots sea level pressurealtimeterstation pressurevisibilityair tempwater tempwave heightnotes
2019-Nov-17 17:00 298 2 gusting 6 11.7
2019-Nov-17 16:50 316 2 gusting 5 11.7
2019-Nov-17 16:40 340 1 gusting 4 11.7
2019-Nov-17 16:30 328 2 gusting 7 11.1
2019-Nov-17 16:20 340 3 gusting 7 11.1
2019-Nov-17 16:10 018 2 gusting 6 11.1
2019-Nov-17 16:00 335 3 gusting 7 11.1
2019-Nov-17 15:50 028 4 gusting 8 10.6
2019-Nov-17 15:40 10.6
2019-Nov-17 15:30 032 6 gusting 10 10.6
2019-Nov-17 15:20 076 4 gusting 9 10.6
2019-Nov-17 15:10 024 4 gusting 7 10.6
2019-Nov-17 15:00 035 5 gusting 9 10.6
2019-Nov-17 14:50 005 4 gusting 10 10.6
2019-Nov-17 14:40 005 6 gusting 10 10.6
2019-Nov-17 14:30 055 6 gusting 13 10.6
2019-Nov-17 14:20 034 4 gusting 8 10.6
2019-Nov-17 14:10 015 6 gusting 11 10.0
2019-Nov-17 14:00 022 6 gusting 12 10.0
2019-Nov-17 13:50 005 6 gusting 12 10.0
2019-Nov-17 13:40 101 7 gusting 13 10.0
2019-Nov-17 13:30 10.0
2019-Nov-17 13:20 355 6 gusting 12 10.0
2019-Nov-17 13:10 022 7 gusting 13 10.0
2019-Nov-17 13:00 013 6 gusting 10 10.0
2019-Nov-17 12:50 050 7 gusting 11 10.0
2019-Nov-17 12:40 336 7 gusting 11 10.0
2019-Nov-17 12:30 017 7 gusting 12 10.0
2019-Nov-17 12:20 023 9 gusting 13 10.0
2019-Nov-17 12:10 017 6 gusting 12 10.0
2019-Nov-17 12:00 017 6 gusting 10 10.0
2019-Nov-17 11:50 019 6 gusting 11 10.0
2019-Nov-17 11:40 031 6 gusting 11 10.0
2019-Nov-17 11:30 018 6 gusting 11 10.0
2019-Nov-17 11:20 041 4 gusting 9 10.0
2019-Nov-17 11:10 020 7 gusting 10 10.0
2019-Nov-17 11:00 020 6 gusting 11 10.0
2019-Nov-17 10:50 009 4 gusting 11 10.0
2019-Nov-17 10:40 005 5 gusting 10 10.0
2019-Nov-17 10:30 319 5 gusting 10 10.0
2019-Nov-17 10:20 340 5 gusting 10 10.0
2019-Nov-17 10:10 029 6 gusting 10 10.0
2019-Nov-17 10:00 022 7 gusting 13 10.0
2019-Nov-17 09:50 070 6 gusting 13 10.0
2019-Nov-17 09:40 030 5 gusting 9 10.0
2019-Nov-17 09:30 090 8 gusting 12 10.0
2019-Nov-17 09:20 333 6 gusting 11 10.0
2019-Nov-17 09:10 340 6 gusting 12 10.0
2019-Nov-17 09:00 015 6 gusting 11 10.0
2019-Nov-17 08:50 065 6 gusting 11 10.0
2019-Nov-17 08:40 042 6 gusting 10 10.0
2019-Nov-17 08:30 338 4 gusting 9 10.0
2019-Nov-17 08:20 053 7 gusting 11 10.0
2019-Nov-17 08:10 042 4 gusting 9 10.0
2019-Nov-17 08:00 341 5 gusting 10 10.0
2019-Nov-17 07:50 355 5 gusting 10 10.0
2019-Nov-17 07:40 031 6 gusting 9 10.0
2019-Nov-17 07:30 040 6 gusting 13 10.0
2019-Nov-17 07:20 028 5 gusting 10 10.6
2019-Nov-17 07:10 016 6 gusting 12 10.0
2019-Nov-17 07:00 061 7 gusting 12 10.0
2019-Nov-17 06:50 005 6 gusting 13 10.6
2019-Nov-17 06:40 005 6 gusting 10 10.6
2019-Nov-17 06:30 019 6 gusting 11 10.6
2019-Nov-17 06:20 073 7 gusting 12 10.6
2019-Nov-17 06:10 005 9 gusting 13 10.6
2019-Nov-17 06:00 041 9 gusting 14 10.6
2019-Nov-17 05:50 057 8 gusting 13 10.6
2019-Nov-17 05:40 038 5 gusting 12 10.6
2019-Nov-17 05:30 059 6 gusting 11 10.6
2019-Nov-17 05:20 046 7 gusting 12 10.0
2019-Nov-17 05:10 044 7 gusting 12 10.6
2019-Nov-17 05:00 005 7 gusting 13 10.6
2019-Nov-17 04:50 049 7 gusting 13 10.6
2019-Nov-17 04:40 351 6 gusting 10 10.6
2019-Nov-17 04:30 012 8 gusting 13 10.6
2019-Nov-17 04:20 009 8 gusting 13 10.6
2019-Nov-17 04:10 035 8 gusting 13 10.6
2019-Nov-17 04:00 035 7 gusting 13 10.6
2019-Nov-17 03:50 068 7 gusting 12 11.1
2019-Nov-17 03:40 067 7 gusting 12 11.1
2019-Nov-17 03:30 11.1
2019-Nov-17 03:20 015 8 gusting 16 11.1
2019-Nov-17 03:10 050 10 gusting 17 11.1
2019-Nov-17 03:00 049 7 gusting 14 11.1
2019-Nov-17 02:50 095 12 gusting 16 11.1
2019-Nov-17 02:40 053 12 gusting 19 11.7
2019-Nov-17 02:30 026 9 gusting 17 11.7
2019-Nov-17 02:20 018 9 gusting 19 11.1
2019-Nov-17 02:10 021 12 gusting 18 11.1
2019-Nov-17 02:00 028 13 gusting 21 11.1
2019-Nov-17 01:51 026 10 gusting 18 11.7
2019-Nov-17 01:42 355 9 gusting 16 11.7
2019-Nov-17 01:30 025 8 gusting 17 11.7
2019-Nov-17 01:20 005 11 gusting 18 11.7
2019-Nov-17 01:10 019 7 gusting 17 11.7
2019-Nov-17 01:00 299 11 gusting 19 11.7
2019-Nov-17 00:50 016 14 gusting 23 11.7
2019-Nov-17 00:40 017 13 gusting 24 12.2
2019-Nov-17 00:30 012 11 gusting 20 12.2
2019-Nov-17 00:20 304 12 gusting 19 12.2
2019-Nov-17 00:10 034 9 gusting 17 12.2
2019-Nov-17 00:00 010 10 gusting 17 12.2
2019-Nov-16 23:50 009 11 gusting 22 12.2
2019-Nov-16 23:40 12.8
2019-Nov-16 23:30 046 9 gusting 21 12.8
2019-Nov-16 23:20 351 8 gusting 15 12.8
2019-Nov-16 23:10 029 10 gusting 19 12.8
2019-Nov-16 23:00 310 10 gusting 22 12.8
2019-Nov-16 22:50 064 11 gusting 20 12.8
2019-Nov-16 22:40 327 8 gusting 17 12.8
2019-Nov-16 22:30 053 10 gusting 18 12.8
2019-Nov-16 22:20 315 9 gusting 17 12.8
2019-Nov-16 22:10 12.8
2019-Nov-16 22:00 355 8 gusting 18 12.8
2019-Nov-16 21:50 339 7 gusting 18 12.8
2019-Nov-16 21:40 107 9 gusting 16 12.8
2019-Nov-16 21:30 351 10 gusting 17 13.3
2019-Nov-16 21:20 329 11 gusting 19 13.3
2019-Nov-16 21:10 028 10 gusting 19 13.3
2019-Nov-16 21:00 301 12 gusting 23 13.3
2019-Nov-16 20:50 13.3
2019-Nov-16 20:40 013 6 gusting 17 13.3
2019-Nov-16 20:30 039 9 gusting 19 13.3
2019-Nov-16 20:20 13.3
2019-Nov-16 20:10 005 7 gusting 17 13.9
2019-Nov-16 20:00 343 8 gusting 15 13.9
2019-Nov-16 19:50 305 8 gusting 16 13.9
2019-Nov-16 19:40 059 8 gusting 15 13.9
2019-Nov-16 19:30 101 7 gusting 14 13.9
2019-Nov-16 19:20 279 9 gusting 19 13.9
2019-Nov-16 19:10 350 10 gusting 19 14.4
2019-Nov-16 19:00 340 8 gusting 17 14.4
2019-Nov-16 18:50 005 8 gusting 17 14.4
2019-Nov-16 18:40 016 9 gusting 20 14.4
2019-Nov-16 18:30 164 11 gusting 17 15.0
2019-Nov-16 18:20 078 6 gusting 17 15.0
2019-Nov-16 18:10 062 7 gusting 17 15.0
2019-Nov-16 18:00 343 9 gusting 18 15.0
2019-Nov-16 17:50 296 7 gusting 17 15.6
2019-Nov-16 17:40 022 8 gusting 19 15.6
2019-Nov-16 17:29 355 9 gusting 19 15.6
2019-Nov-16 17:19 288 8 gusting 20 15.6
2019-Nov-16 17:09 15.6
2019-Nov-16 17:00 005 7 gusting 16 15.6
2019-Nov-16 16:49 348 7 gusting 15 15.6
2019-Nov-16 16:39 342 8 gusting 18 15.0
2019-Nov-16 16:30 340 6 gusting 15 15.0
2019-Nov-16 16:19 355 7 gusting 16 15.0
2019-Nov-16 16:09 298 6 gusting 14 15.6
2019-Nov-16 15:59 322 6 gusting 13 15.6
2019-Nov-16 15:49 013 5 gusting 13 15.0
2019-Nov-16 15:39 344 6 gusting 13 15.0
2019-Nov-16 15:29 338 7 gusting 15 15.0
2019-Nov-16 15:19 030 6 gusting 14 15.6
2019-Nov-16 15:09 319 7 gusting 16 15.6
2019-Nov-16 14:59 349 6 gusting 14 15.6
2019-Nov-16 14:49 280 7 gusting 15 15.6
2019-Nov-16 14:39 329 7 gusting 16 15.6
2019-Nov-16 14:29 042 6 gusting 12 15.6
2019-Nov-16 14:19 313 6 gusting 14 15.6
2019-Nov-16 14:09 340 6 gusting 15 15.6
2019-Nov-16 13:59 311 5 gusting 12 15.6
2019-Nov-16 13:49 297 5 gusting 11 15.6
2019-Nov-16 13:39 336 6 gusting 14 15.6
2019-Nov-16 13:29 013 6 gusting 13 15.6
2019-Nov-16 13:19 027 6 gusting 14 15.6
2019-Nov-16 13:09 274 6 gusting 14 15.6
2019-Nov-16 12:59 093 6 gusting 13 15.6
2019-Nov-16 12:49 355 5 gusting 13 15.6
2019-Nov-16 12:39 289 5 gusting 13 15.6
2019-Nov-16 12:29 339 4 gusting 9 15.6
2019-Nov-16 12:19 069 5 gusting 10 15.6
2019-Nov-16 12:09 327 3 gusting 8 15.6
2019-Nov-16 11:59 355 4 gusting 11 15.6
2019-Nov-16 11:49 331 4 gusting 11 15.6
2019-Nov-16 11:39 027 5 gusting 12 15.6
2019-Nov-16 11:29 225 4 gusting 10 16.1
2019-Nov-16 11:19 054 6 gusting 13 16.1
2019-Nov-16 11:09 082 4 gusting 11 16.1
2019-Nov-16 10:59 059 4 gusting 10 16.1
2019-Nov-16 10:49 308 4 gusting 9 16.1
2019-Nov-16 10:39 311 5 gusting 10 16.1
2019-Nov-16 10:29 343 5 gusting 11 16.1
2019-Nov-16 10:19 317 4 gusting 11 16.1
2019-Nov-16 10:09 331 6 gusting 12 16.1
2019-Nov-16 09:59 336 5 gusting 10 16.1
2019-Nov-16 09:49 342 6 gusting 11 16.1
2019-Nov-16 09:39 318 3 gusting 9 16.1
2019-Nov-16 09:29 330 4 gusting 8 16.1
2019-Nov-16 09:19 16.1
2019-Nov-16 09:09 321 5 gusting 10 16.1
2019-Nov-16 08:59 294 4 gusting 10 16.1
2019-Nov-16 08:49 304 5 gusting 10 16.1
2019-Nov-16 08:39 323 4 gusting 8 16.1
2019-Nov-16 08:29 340 4 gusting 9 16.1
2019-Nov-16 08:19 299 6 gusting 12 16.1
2019-Nov-16 08:09 319 6 gusting 10 16.1
2019-Nov-16 07:59 311 6 gusting 13 16.1
2019-Nov-16 07:49 082 5 gusting 13 16.7
2019-Nov-16 07:39 342 4 gusting 10 16.7
2019-Nov-16 07:29 336 5 gusting 11 16.7
2019-Nov-16 07:19 297 6 gusting 13 16.7
2019-Nov-16 07:09 347 6 gusting 12 16.7
2019-Nov-16 06:59 341 5 gusting 12 16.7
2019-Nov-16 06:49 013 6 gusting 13 16.7
2019-Nov-16 06:39 024 6 gusting 12 16.7
2019-Nov-16 06:29 294 6 gusting 12 16.7
2019-Nov-16 06:19 013 5 gusting 11 16.7
2019-Nov-16 06:09 309 4 gusting 12 16.7
2019-Nov-16 05:59 333 5 gusting 12 16.7
2019-Nov-16 05:49 284 5 gusting 11 16.7
2019-Nov-16 05:39 005 5 gusting 12 16.7
2019-Nov-16 05:29 312 6 gusting 14 16.7
2019-Nov-16 05:19 286 6 gusting 13 16.7
2019-Nov-16 05:09 282 6 gusting 11 16.7
2019-Nov-16 04:59 333 6 gusting 13 16.7
2019-Nov-16 04:49 230 6 gusting 13 16.1
2019-Nov-16 04:39 16.7
2019-Nov-16 04:29 346 6 gusting 15 16.7
2019-Nov-16 04:19 351 6 gusting 13 16.7
2019-Nov-16 04:09 323 7 gusting 13 16.7
2019-Nov-16 03:59 311 6 gusting 13 16.7
2019-Nov-16 03:49 042 7 gusting 17 16.7
2019-Nov-16 03:39 055 7 gusting 19 16.7
2019-Nov-16 03:29 316 6 gusting 14 16.7
2019-Nov-16 03:19 009 6 gusting 15 16.7
2019-Nov-16 03:09 020 6 gusting 14 16.7
2019-Nov-16 02:59 346 4 gusting 13 16.7
2019-Nov-16 02:49 299 5 gusting 14 16.7
2019-Nov-16 02:39 303 4 gusting 10 16.7
2019-Nov-16 02:29 073 4 gusting 9 16.7
2019-Nov-16 02:19 293 3 gusting 13 16.7
2019-Nov-16 02:09 272 5 gusting 13 16.7
2019-Nov-16 01:59 342 4 gusting 10 16.7
2019-Nov-16 01:49 291 5 gusting 11 16.7
2019-Nov-16 01:39 063 5 gusting 11 16.7
2019-Nov-16 01:29 033 6 gusting 13 16.7
2019-Nov-16 01:19 355 6 gusting 12 16.7
2019-Nov-16 01:09 355 6 gusting 13 16.7
2019-Nov-16 00:59 301 6 gusting 13 16.7
2019-Nov-16 00:49 044 5 gusting 14 16.7
2019-Nov-16 00:39 339 6 gusting 13 16.7
2019-Nov-16 00:29 005 7 gusting 13 16.7
2019-Nov-16 00:19 011 6 gusting 13 17.2
2019-Nov-16 00:09 014 6 gusting 12 17.2
2019-Nov-15 23:59 101 6 gusting 13 17.2
2019-Nov-15 23:49 17.2
2019-Nov-15 23:39 034 7 gusting 13 17.2
2019-Nov-15 23:29 146 6 gusting 14 17.2
2019-Nov-15 23:19 337 6 gusting 13 17.2
2019-Nov-15 23:09 17.2
2019-Nov-15 22:59 026 5 gusting 12 17.2
2019-Nov-15 22:49 063 4 gusting 11 17.2
2019-Nov-15 22:39 091 8 gusting 16 17.2
2019-Nov-15 22:29 326 7 gusting 17 17.2
2019-Nov-15 22:19 297 9 gusting 17 17.8
2019-Nov-15 22:09 005 7 gusting 16 17.8
2019-Nov-15 21:59 341 8 gusting 18 17.8
2019-Nov-15 21:49 344 6 gusting 13 17.8
2019-Nov-15 21:39 329 6 gusting 13 17.8
2019-Nov-15 21:29 027 6 gusting 17 17.8
2019-Nov-15 21:19 344 7 gusting 14 17.8
2019-Nov-15 21:09 236 8 gusting 14 18.3
2019-Nov-15 20:59 305 6 gusting 14 18.3
2019-Nov-15 20:49 334 7 gusting 15 18.3
2019-Nov-15 20:39 355 7 gusting 14 18.3
2019-Nov-15 20:29 349 8 gusting 15 18.3
2019-Nov-15 20:19 306 6 gusting 15 18.3
2019-Nov-15 20:09 344 6 gusting 17 18.3
2019-Nov-15 19:59 346 6 gusting 14 18.3
2019-Nov-15 19:49 032 6 gusting 14 18.3
2019-Nov-15 19:39 306 6 gusting 14 18.3
2019-Nov-15 19:29 326 7 gusting 14 18.3
2019-Nov-15 19:19 265 7 gusting 16 18.3
2019-Nov-15 19:09 302 7 gusting 16 18.9
2019-Nov-15 18:59 296 8 gusting 14 18.9
2019-Nov-15 18:49 323 9 gusting 16 18.9
2019-Nov-15 18:39 255 7 gusting 14 19.4
2019-Nov-15 18:29 288 9 gusting 17 19.4
2019-Nov-15 18:19 336 7 gusting 13 19.4
2019-Nov-15 18:09 319 9 gusting 15 19.4